メインページ
METAR-TAF:

METAR-TAF

空港 :

リヤド, サウジアラビア

緯度: 24-43N, 経度: 046-44E, 海抜: 635m

現時点の気象観測

当レポートは13時間4分前の05:00(UTC)に作成
北/北東の風 11kt
気温 29°C
湿度 25%
気圧 1016 hPa
視程: 8000m

METAR: OERY 260500Z 03011KT 8000 NSC 29/07 Q1016

時間: 21:04 (18:04 UTC)

予報

当レポートは7時間4分前の11:00(UTC)に作成
予報は26日の 12時(UTC)から 27日の 18時(UTC)まで有効
北東の風 12kt
視程: 8000m
26日の 18時(UTC)から 26日の 20時(UTC)まで徐々に
変向風 3kt

TAF: OERY 261100Z 2612/2718 04012KT 8000 NSC BECMG 2618/2620 VRB03KT

4,000以上の空港の気象観測と天気予報(METAR報とTAF報)

利用可能な観測所は地図上に黄色い丸と赤い丸で示す。

丸の上にカーソルを重ねると観測所名を参照できる。

次にクリックすると気象観測と天気予報を参照できる。

マップの切り替え:黒色「×」印の緑ボタンをクリックして拡大、「-」印の緑ボタンをクリックして縮小、緑色の三角印をクリックして隣りの地図に切り替え


METAR-TAF: